createdAt,value
2018-06-21T15:26:11.243Z,1013.49
2018-06-21T15:27:32.020Z,1013.50
2018-06-21T15:28:31.936Z,1013.47
2018-06-21T15:30:24.619Z,1013.48
2018-06-21T15:31:24.512Z,1013.49
2018-06-21T15:33:17.234Z,1013.32
2018-06-21T15:34:17.104Z,1013.32
2018-06-21T15:36:09.923Z,1013.33
2018-06-21T15:37:09.785Z,1013.36
2018-06-21T15:38:31.681Z,1013.34
2018-06-21T15:39:31.582Z,1013.34
2018-06-21T15:41:41.571Z,1013.32
2018-06-21T15:47:30.804Z,1013.32
2018-06-21T15:48:29.881Z,1013.36
2018-06-21T15:49:30.151Z,1013.38
2018-06-21T15:50:29.794Z,1013.44
2018-06-21T15:51:31.704Z,1013.35
2018-06-21T15:52:30.018Z,1013.41
2018-06-21T15:53:29.427Z,1013.38
2018-06-21T15:54:30.415Z,1013.43
2018-06-21T16:39:35.989Z,1015.09
2018-06-21T16:40:36.107Z,1015.17
2018-06-21T16:41:35.882Z,1015.20
2018-06-21T16:42:35.760Z,1015.35
2018-06-21T16:43:35.735Z,1015.25
2018-06-21T16:44:35.614Z,1015.34
2018-06-21T16:45:35.619Z,1015.38
2018-06-21T16:46:35.459Z,1015.31
2018-06-21T16:47:35.343Z,1015.38
2018-06-21T16:48:35.125Z,1015.39
2018-06-21T16:49:35.073Z,1015.31
2018-06-21T16:50:34.987Z,1015.31
2018-06-21T16:51:34.945Z,1015.24
2018-06-21T16:52:34.763Z,1015.27
2018-06-21T16:53:34.610Z,1015.26
2018-06-21T16:54:34.603Z,1015.29
2018-06-21T16:55:34.461Z,1015.25
2018-06-21T16:56:34.413Z,1015.32
2018-06-21T16:57:34.293Z,1015.34
2018-06-21T16:58:34.256Z,1015.67
2018-06-21T16:59:34.477Z,1015.66
2018-06-21T17:00:34.344Z,1015.68
2018-06-21T17:01:34.283Z,1015.71
2018-06-21T17:02:33.979Z,1015.57
2018-06-21T17:03:34.099Z,1015.64
2018-06-21T17:04:34.040Z,1015.60
2018-06-21T17:05:33.817Z,1015.63
2018-06-21T17:06:33.639Z,1015.58
2018-06-21T17:07:33.623Z,1015.66
2018-06-21T17:08:33.361Z,1015.75
2018-06-21T17:09:33.545Z,1015.69
2018-06-21T17:10:33.220Z,1015.66
2018-06-21T17:11:33.337Z,1015.70
2018-06-21T17:12:33.205Z,1015.73
2018-06-21T17:13:32.905Z,1015.66
2018-06-21T17:14:32.975Z,1015.65
2018-06-21T17:15:32.750Z,1015.23
2018-06-21T17:16:33.241Z,1015.23
2018-06-21T17:17:32.765Z,1015.27
2018-06-21T17:18:32.706Z,1015.26
2018-06-21T17:19:32.637Z,1015.30
2018-06-21T17:20:32.489Z,1015.61
2018-06-21T17:21:32.489Z,1015.62
2018-06-21T17:22:32.403Z,1015.70
2018-06-21T17:23:32.320Z,1015.77
2018-06-21T17:24:32.383Z,1015.40
2018-06-21T17:25:32.233Z,1015.35
2018-06-21T17:26:32.919Z,1015.29
2018-06-21T17:27:32.101Z,1015.28
2018-06-21T17:28:31.687Z,1015.36
2018-06-21T17:29:31.603Z,1015.31
2018-06-21T17:30:31.700Z,1015.29
2018-06-21T17:31:31.447Z,1015.41
2018-06-21T17:32:31.508Z,1015.46
2018-06-21T17:33:31.345Z,1015.42
2018-06-21T17:34:31.113Z,1015.36
2018-06-21T17:35:31.104Z,1015.37
2018-06-21T17:36:31.047Z,1015.31
2018-06-21T17:37:31.015Z,1015.31
2018-06-21T17:38:31.881Z,1015.29
2018-06-21T17:39:30.637Z,1015.37
2018-06-21T17:40:30.618Z,1015.20
2018-06-21T17:41:31.208Z,1015.33
2018-06-21T17:42:30.401Z,1015.34
2018-06-21T17:43:31.297Z,1015.37
2018-06-21T17:44:31.722Z,1015.35
2018-06-21T17:45:32.266Z,1015.35
2018-06-21T17:46:29.977Z,1015.35
2018-06-21T17:47:29.983Z,1015.39
2018-06-21T17:48:29.810Z,1015.40
2018-06-21T17:49:29.949Z,1015.45
2018-06-21T17:50:29.659Z,1015.35
2018-06-21T17:51:29.533Z,1015.41
2018-06-21T17:52:29.465Z,1015.39
2018-06-21T17:53:27.952Z,1015.43
2018-06-21T17:54:27.844Z,1015.41
2018-06-21T17:55:27.715Z,1015.49
2018-06-21T17:56:27.675Z,1015.62
2018-06-21T17:57:27.577Z,1015.67
2018-06-21T17:58:27.631Z,1015.64
2018-06-21T17:59:28.918Z,1015.74
2018-06-21T18:00:28.627Z,1015.65
2018-06-21T18:01:28.341Z,1015.74
2018-06-21T18:02:28.413Z,1015.58
2018-06-21T18:03:28.367Z,1015.58
2018-06-21T18:04:28.050Z,1015.71
2018-06-21T18:05:28.060Z,1015.72
2018-06-21T18:06:28.295Z,1015.69
2018-06-21T18:07:28.218Z,1015.75
2018-06-21T18:08:27.807Z,1015.72
2018-06-21T18:09:27.620Z,1015.74
2018-06-21T18:10:27.724Z,1015.73
2018-06-21T18:11:27.643Z,1015.82
2018-06-21T18:12:27.444Z,1015.83
2018-06-21T18:13:26.974Z,1015.68
2018-06-21T18:14:26.714Z,1015.72
2018-06-21T18:15:26.224Z,1015.75
2018-06-21T18:16:27.093Z,1015.77
2018-06-21T18:17:27.254Z,1015.71
2018-06-21T18:18:26.314Z,1015.95
2018-06-21T18:19:27.801Z,1015.85
2018-06-21T18:20:27.890Z,1015.86
2018-06-21T18:21:27.795Z,1015.97
2018-06-21T18:22:26.423Z,1015.86
2018-06-21T18:23:26.283Z,1015.87
2018-06-21T18:24:26.497Z,1015.85
2018-06-21T18:25:26.114Z,1015.86
2018-06-21T18:26:26.103Z,1015.86
2018-06-21T18:27:26.034Z,1015.93
2018-06-21T18:28:25.819Z,1015.94
2018-06-21T18:29:26.033Z,1015.91
2018-06-21T18:30:25.683Z,1015.89
2018-06-21T18:31:25.179Z,1015.87
2018-06-21T18:32:26.816Z,1015.87
2018-06-21T18:33:25.377Z,1015.94
2018-06-21T18:34:25.185Z,1015.88
2018-06-21T18:35:25.074Z,1016.00
2018-06-21T18:36:25.002Z,1015.97
2018-06-21T18:37:24.948Z,1015.99
2018-06-21T18:38:25.027Z,1015.98
2018-06-21T18:39:24.751Z,1016.06
2018-06-21T18:40:24.892Z,1015.97
2018-06-21T18:41:24.461Z,1016.02
2018-06-21T18:42:24.265Z,1015.98
2018-06-21T18:43:24.533Z,1015.99
2018-06-21T18:44:24.055Z,1016.00
2018-06-21T18:45:24.043Z,1015.95
2018-06-21T18:46:24.289Z,1016.05
2018-06-21T18:47:23.936Z,1016.01
2018-06-21T18:48:23.756Z,1016.01
2018-06-21T18:49:23.879Z,1016.08
2018-06-21T18:50:23.083Z,1016.02
